Time;durP1;ratioP1;P1;durP2;ratioP2;P2;SDS_P1;SDS_P2;PMS_P1;PMS_P2;Temp;Humidity;BMP_temperature;BMP_pressure;BME280_temperature;BME280_humidity;BME280_pressure;Samples;Min_cycle;Max_cycle;Signal;HPM_P1;HPM_P2
2023/11/04 00:02:20;;;;;;;12.35;6.63;;;;;;;;;;10211223;29;20195;-77
2023/11/04 00:07:21;;;;;;;14.23;6.07;;;;;;;;;;10215844;29;20023;-77
2023/11/04 00:12:21;;;;;;;11.00;4.90;;;;;;;;;;10215097;29;20023;-77
2023/11/04 00:17:21;;;;;;;13.32;5.80;;;;;;;;;;10214641;29;20295;-77
2023/11/04 00:22:21;;;;;;;14.00;6.13;;;;;;;;;;10215155;29;20239;-77
2023/11/04 00:27:22;;;;;;;13.85;5.97;;;;;;;;;;10214811;29;20305;-77
2023/11/04 00:32:23;;;;;;;14.68;5.85;;;;;;;;;;10219486;29;20344;-76
2023/11/04 00:37:23;;;;;;;27.85;6.20;;;;;;;;;;10221469;29;20283;-77
2023/11/04 00:42:24;;;;;;;14.15;6.20;;;;;;;;;;10221211;29;20035;-80
2023/11/04 00:47:24;;;;;;;11.17;5.93;;;;;;;;;;10219967;29;20026;-79
2023/11/04 00:52:24;;;;;;;19.00;6.67;;;;;;;;;;10221482;29;20270;-79
2023/11/04 00:57:25;;;;;;;14.50;6.60;;;;;;;;;;10222372;29;20028;-76
2023/11/04 01:02:25;;;;;;;15.33;7.50;;;;;;;;;;10219311;29;20599;-75
2023/11/04 01:07:25;;;;;;;15.93;9.00;;;;;;;;;;10222474;28;20008;-76
2023/11/04 01:12:26;;;;;;;18.33;8.88;;;;;;;;;;10224034;28;20130;-76
2023/11/04 01:17:26;;;;;;;14.33;8.73;;;;;;;;;;10219648;29;20024;-76
2023/11/04 01:22:26;;;;;;;26.88;10.18;;;;;;;;;;10219425;29;20372;-76
2023/11/04 01:27:26;;;;;;;20.70;11.00;;;;;;;;;;10219480;29;20039;-76
2023/11/04 01:32:27;;;;;;;21.15;11.15;;;;;;;;;;10219508;28;20023;-76
2023/11/04 01:37:27;;;;;;;25.67;11.43;;;;;;;;;;10219577;29;20083;-76
2023/11/04 01:42:28;;;;;;;24.80;11.02;;;;;;;;;;10218341;29;20024;-76
2023/11/04 01:47:28;;;;;;;27.17;12.88;;;;;;;;;;10218826;29;20416;-78
2023/11/04 01:52:29;;;;;;;29.70;15.02;;;;;;;;;;10228314;29;20023;-77
2023/11/04 01:57:30;;;;;;;35.33;16.58;;;;;;;;;;10219077;29;20019;-77
2023/11/04 02:02:30;;;;;;;36.22;17.48;;;;;;;;;;10221830;29;20027;-77
2023/11/04 02:07:31;;;;;;;35.60;14.70;;;;;;;;;;10218328;29;20157;-76
2023/11/04 02:12:31;;;;;;;31.87;13.70;;;;;;;;;;10218496;29;20027;-75
2023/11/04 02:17:31;;;;;;;22.77;11.53;;;;;;;;;;10218160;29;20216;-76
2023/11/04 02:22:31;;;;;;;22.83;9.82;;;;;;;;;;10209606;29;20068;-76
2023/11/04 02:27:32;;;;;;;18.92;7.70;;;;;;;;;;10213364;29;20008;-75
2023/11/04 02:32:32;;;;;;;16.35;8.23;;;;;;;;;;10210226;29;20032;-75
2023/11/04 02:37:32;;;;;;;11.48;5.25;;;;;;;;;;10218451;29;20239;-75
2023/11/04 02:42:32;;;;;;;9.10;5.88;;;;;;;;;;10213150;28;20035;-75
2023/11/04 02:47:33;;;;;;;15.95;6.65;;;;;;;;;;10217053;29;20074;-76
2023/11/04 02:52:33;;;;;;;22.52;9.98;;;;;;;;;;10216584;29;20062;-77
2023/11/04 02:57:34;;;;;;;35.35;15.68;;;;;;;;;;10213632;29;20361;-76
2023/11/04 03:02:35;;;;;;;24.83;12.95;;;;;;;;;;10216850;29;20082;-75
2023/11/04 03:07:35;;;;;;;17.80;10.18;;;;;;;;;;10216601;29;20020;-75
2023/11/04 03:12:36;;;;;;;23.65;10.98;;;;;;;;;;10215751;28;20103;-77
2023/11/04 03:17:36;;;;;;;18.75;9.93;;;;;;;;;;10218795;29;20140;-75
2023/11/04 03:22:36;;;;;;;16.10;8.48;;;;;;;;;;10215224;29;20042;-75
2023/11/04 03:27:37;;;;;;;15.10;7.90;;;;;;;;;;10215325;29;20019;-75
2023/11/04 03:32:37;;;;;;;9.27;5.85;;;;;;;;;;10215878;29;20028;-74
2023/11/04 03:37:37;;;;;;;7.18;4.20;;;;;;;;;;10215616;29;20027;-74
2023/11/04 03:42:38;;;;;;;9.60;4.68;;;;;;;;;;10215260;29;20091;-75
2023/11/04 03:47:38;;;;;;;16.77;5.38;;;;;;;;;;10212561;29;20294;-76
2023/11/04 03:52:38;;;;;;;11.02;6.00;;;;;;;;;;10215306;29;20027;-75
2023/11/04 03:57:38;;;;;;;15.10;7.23;;;;;;;;;;10215658;29;20195;-75
2023/11/04 04:02:39;;;;;;;12.98;5.53;;;;;;;;;;10207352;29;20306;-77
2023/11/04 04:07:39;;;;;;;14.02;5.78;;;;;;;;;;10220969;29;20016;-75
2023/11/04 04:12:39;;;;;;;13.00;5.65;;;;;;;;;;10224673;29;20119;-75
2023/11/04 04:17:39;;;;;;;13.10;6.22;;;;;;;;;;10222916;29;20038;-75
2023/11/04 04:22:40;;;;;;;13.75;6.10;;;;;;;;;;10221932;29;20305;-76
2023/11/04 04:27:40;;;;;;;14.18;5.47;;;;;;;;;;10222803;29;20046;-76
2023/11/04 04:32:41;;;;;;;8.23;4.85;;;;;;;;;;10214603;29;20035;-75
2023/11/04 04:37:41;;;;;;;8.85;5.30;;;;;;;;;;10222144;29;20364;-76
2023/11/04 04:42:41;;;;;;;11.82;5.13;;;;;;;;;;10221539;29;20053;-76
2023/11/04 04:47:42;;;;;;;13.35;7.10;;;;;;;;;;10221704;29;20311;-75
2023/11/04 04:52:42;;;;;;;1.63;0.68;;;;;;;;;;10219432;29;20027;-76
2023/11/04 04:57:42;;;;;;;3.63;0.95;;;;;;;;;;10233636;29;20020;-74
2023/11/04 05:02:42;;;;;;;3.60;0.52;;;;;;;;;;10222195;29;20019;-77
2023/11/04 05:07:42;;;;;;;2.00;0.60;;;;;;;;;;10233446;29;20082;-77
2023/11/04 05:12:43;;;;;;;2.88;0.60;;;;;;;;;;10232995;29;20027;-77
2023/11/04 05:17:45;;;;;;;6.43;0.90;;;;;;;;;;10232498;28;20020;-77
2023/11/04 05:22:45;;;;;;;0.40;0.32;;;;;;;;;;10222521;29;20019;-75
2023/11/04 05:27:46;;;;;;;5.07;0.60;;;;;;;;;;10221709;29;20016;-77
2023/11/04 05:32:46;;;;;;;2.88;0.52;;;;;;;;;;10218467;29;20286;-78
2023/11/04 05:37:46;;;;;;;3.08;1.10;;;;;;;;;;10245001;28;20437;-77
2023/11/04 05:42:46;;;;;;;1.65;0.75;;;;;;;;;;10227622;29;20050;-76
2023/11/04 05:47:47;;;;;;;3.80;0.57;;;;;;;;;;10213136;29;20222;-76
2023/11/04 05:52:48;;;;;;;0.77;0.47;;;;;;;;;;10215098;29;20114;-76
2023/11/04 05:57:48;;;;;;;0.65;0.40;;;;;;;;;;10229628;29;20051;-76
2023/11/04 06:02:48;;;;;;;0.73;0.30;;;;;;;;;;10212026;29;20047;-76
2023/11/04 06:07:48;;;;;;;1.15;0.50;;;;;;;;;;10214971;29;20040;-76
2023/11/04 06:12:49;;;;;;;1.92;0.32;;;;;;;;;;10214415;29;20301;-77
2023/11/04 06:17:49;;;;;;;0.68;0.35;;;;;;;;;;10210209;29;20031;-77
2023/11/04 06:22:49;;;;;;;10.10;0.60;;;;;;;;;;10207664;29;20345;-76
2023/11/04 06:27:50;;;;;;;4.32;0.60;;;;;;;;;;10206647;29;20337;-76
2023/11/04 06:32:50;;;;;;;3.08;1.52;;;;;;;;;;10212905;28;20329;-75
2023/11/04 06:37:51;;;;;;;3.42;1.33;;;;;;;;;;10245403;28;20349;-74
2023/11/04 06:42:51;;;;;;;4.28;1.10;;;;;;;;;;10202996;28;20035;-74
2023/11/04 06:47:52;;;;;;;4.20;1.25;;;;;;;;;;10215307;29;20047;-73
2023/11/04 06:52:52;;;;;;;7.28;1.55;;;;;;;;;;10211983;29;20242;-73
2023/11/04 06:57:52;;;;;;;1.70;0.90;;;;;;;;;;10209968;28;20031;-74
2023/11/04 07:02:52;;;;;;;2.20;0.65;;;;;;;;;;10193687;28;20040;-73
2023/11/04 07:07:53;;;;;;;3.30;1.00;;;;;;;;;;10213255;28;20091;-74
2023/11/04 07:12:53;;;;;;;5.78;1.90;;;;;;;;;;10217067;29;20012;-75
2023/11/04 07:17:55;;;;;;;11.63;2.20;;;;;;;;;;10216085;28;20103;-74
2023/11/04 07:22:55;;;;;;;5.53;2.22;;;;;;;;;;10221228;28;20027;-74
2023/11/04 07:27:58;;;;;;;9.40;2.30;;;;;;;;;;10217555;29;20023;-74
2023/11/04 07:32:59;;;;;;;2.67;1.40;;;;;;;;;;10215961;29;20038;-74
2023/11/04 07:37:59;;;;;;;2.03;1.33;;;;;;;;;;10216568;28;20027;-76
2023/11/04 07:43:00;;;;;;;6.18;2.78;;;;;;;;;;10223917;28;20024;-76
2023/11/04 07:48:00;;;;;;;5.87;1.53;;;;;;;;;;10223941;29;20038;-77
2023/11/04 07:53:00;;;;;;;4.70;1.58;;;;;;;;;;10220510;29;20279;-76
2023/11/04 07:58:00;;;;;;;2.72;1.00;;;;;;;;;;10220942;29;20027;-76
2023/11/04 08:03:01;;;;;;;2.10;1.30;;;;;;;;;;10219579;29;20035;-76
2023/11/04 08:08:02;;;;;;;5.30;2.05;;;;;;;;;;10223111;29;20230;-76
2023/11/04 08:13:02;;;;;;;5.28;2.38;;;;;;;;;;10221069;29;20027;-77
2023/11/04 08:18:02;;;;;;;5.77;2.70;;;;;;;;;;10216920;28;20020;-77
2023/11/04 08:23:02;;;;;;;3.95;1.67;;;;;;;;;;10210221;29;20054;-76
2023/11/04 08:28:03;;;;;;;2.50;0.70;;;;;;;;;;10211758;29;20352;-77
2023/11/04 08:33:03;;;;;;;4.03;2.03;;;;;;;;;;10221646;29;20032;-76
2023/11/04 08:38:03;;;;;;;17.38;5.70;;;;;;;;;;10222793;28;20031;-77
2023/11/04 08:43:04;;;;;;;10.90;6.88;;;;;;;;;;10209985;29;20230;-77
2023/11/04 08:48:04;;;;;;;15.52;7.53;;;;;;;;;;10216308;29;20024;-77
2023/11/04 08:53:04;;;;;;;4.60;3.23;;;;;;;;;;10207491;29;20042;-77
2023/11/04 08:58:04;;;;;;;6.63;2.70;;;;;;;;;;10212839;29;20032;-77
2023/11/04 09:03:05;;;;;;;4.30;2.22;;;;;;;;;;10208609;29;20334;-80
2023/11/04 09:08:05;;;;;;;4.90;1.83;;;;;;;;;;10231908;28;20043;-85
2023/11/04 09:13:06;;;;;;;9.73;3.53;;;;;;;;;;10205242;28;20062;-74
2023/11/04 09:18:06;;;;;;;8.68;3.72;;;;;;;;;;10222615;28;20473;-74
2023/11/04 09:23:07;;;;;;;3.50;2.47;;;;;;;;;;10206201;29;20032;-74
2023/11/04 09:28:07;;;;;;;2.70;1.90;;;;;;;;;;10202729;29;20035;-75
2023/11/04 09:33:08;;;;;;;8.18;2.70;;;;;;;;;;10214134;29;20083;-75
2023/11/04 09:38:09;;;;;;;4.70;2.30;;;;;;;;;;10211323;29;20036;-75
2023/11/04 09:43:09;;;;;;;6.88;2.95;;;;;;;;;;10205418;29;20222;-75
2023/11/04 09:48:10;;;;;;;4.65;1.73;;;;;;;;;;10212487;29;20206;-75
2023/11/04 09:53:15;;;;;;;6.53;4.07;;;;;;;;;;10208826;29;20023;-76
2023/11/04 09:58:15;;;;;;;7.72;3.25;;;;;;;;;;10203555;29;20058;-75
2023/11/04 10:03:16;;;;;;;4.18;2.63;;;;;;;;;;10198949;29;20032;-75
2023/11/04 10:08:16;;;;;;;6.15;3.10;;;;;;;;;;10210608;29;20077;-74
2023/11/04 10:13:17;;;;;;;7.95;3.45;;;;;;;;;;10203395;29;20075;-74
2023/11/04 10:18:17;;;;;;;8.27;4.15;;;;;;;;;;10205045;29;20321;-75
2023/11/04 10:23:21;;;;;;;9.70;4.67;;;;;;;;;;10208868;29;20230;-75
2023/11/04 10:28:23;;;;;;;7.35;3.83;;;;;;;;;;10220561;29;20055;-76
2023/11/04 10:33:23;;;;;;;11.50;7.57;;;;;;;;;;10198195;29;20054;-77
2023/11/04 10:38:25;;;;;;;12.80;4.30;;;;;;;;;;10197118;29;20039;-77
2023/11/04 10:43:28;;;;;;;5.55;2.90;;;;;;;;;;10206861;28;20047;-74
2023/11/04 10:48:32;;;;;;;2.67;1.95;;;;;;;;;;10207753;29;20198;-74
2023/11/04 10:53:39;;;;;;;6.13;3.90;;;;;;;;;;10205743;29;20525;-75
2023/11/04 10:58:45;;;;;;;8.85;4.38;;;;;;;;;;10205405;29;20122;-74
2023/11/04 11:03:47;;;;;;;5.72;3.70;;;;;;;;;;10199830;29;20086;-75
2023/11/04 11:08:48;;;;;;;8.63;4.22;;;;;;;;;;10213637;29;20098;-78
2023/11/04 11:13:50;;;;;;;10.90;5.95;;;;;;;;;;10217011;28;20361;-78
2023/11/04 11:18:52;;;;;;;6.35;3.97;;;;;;;;;;10221459;28;20038;-78
2023/11/04 11:23:52;;;;;;;12.13;5.15;;;;;;;;;;10207385;28;20024;-77
2023/11/04 11:28:52;;;;;;;8.77;4.85;;;;;;;;;;10214661;29;20293;-80
2023/11/04 11:33:53;;;;;;;9.00;5.22;;;;;;;;;;10216720;29;20103;-77
2023/11/04 11:38:55;;;;;;;9.82;5.30;;;;;;;;;;10208802;29;20028;-76
2023/11/04 11:43:55;;;;;;;8.93;4.05;;;;;;;;;;10210766;29;20016;-78
2023/11/04 11:48:56;;;;;;;9.60;5.05;;;;;;;;;;10217101;29;20215;-76
2023/11/04 11:53:57;;;;;;;7.80;4.53;;;;;;;;;;10236529;29;20038;-79
2023/11/04 11:59:02;;;;;;;7.05;4.03;;;;;;;;;;10230674;28;20102;-80
2023/11/04 12:04:04;;;;;;;7.82;3.95;;;;;;;;;;10203641;29;20023;-79
2023/11/04 12:09:06;;;;;;;6.13;3.90;;;;;;;;;;10220794;29;20340;-79
2023/11/04 12:14:07;;;;;;;5.07;3.13;;;;;;;;;;10243990;29;20321;-80
2023/11/04 12:19:07;;;;;;;3.33;2.63;;;;;;;;;;10220690;29;20265;-80
2023/11/04 12:24:08;;;;;;;7.03;2.85;;;;;;;;;;10232799;29;20043;-81
2023/11/04 12:29:09;;;;;;;3.97;2.03;;;;;;;;;;10226918;29;20079;-80
2023/11/04 12:34:10;;;;;;;6.93;2.67;;;;;;;;;;10227542;28;20074;-79
2023/11/04 12:39:10;;;;;;;5.88;3.13;;;;;;;;;;10266725;29;20019;-79
2023/11/04 12:44:11;;;;;;;5.50;3.70;;;;;;;;;;10228519;29;20011;-80
2023/11/04 12:49:14;;;;;;;5.95;3.33;;;;;;;;;;10230491;29;20261;-79
2023/11/04 12:54:14;;;;;;;7.22;3.90;;;;;;;;;;10280823;28;20341;-78
2023/11/04 12:59:15;;;;;;;9.50;5.40;;;;;;;;;;10229027;29;20047;-80
2023/11/04 13:04:18;;;;;;;8.60;4.85;;;;;;;;;;10197231;29;20016;-80
2023/11/04 13:09:19;;;;;;;6.55;4.30;;;;;;;;;;10227550;28;20317;-79
2023/11/04 13:14:19;;;;;;;11.68;4.72;;;;;;;;;;10226531;29;20043;-80
2023/11/04 13:19:21;;;;;;;11.75;5.00;;;;;;;;;;10225897;29;20384;-80
2023/11/04 13:24:22;;;;;;;8.80;4.93;;;;;;;;;;10241025;28;20256;-79
2023/11/04 13:29:22;;;;;;;16.45;5.72;;;;;;;;;;10265385;29;20015;-79
2023/11/04 13:34:23;;;;;;;7.88;4.45;;;;;;;;;;10265689;29;20336;-78
2023/11/04 13:39:25;;;;;;;3.95;1.85;;;;;;;;;;10238058;28;20027;-79
2023/11/04 13:44:25;;;;;;;6.82;2.03;;;;;;;;;;10253297;29;20339;-79
2023/11/04 13:49:31;;;;;;;2.50;1.10;;;;;;;;;;10241858;28;20016;-78
2023/11/04 13:54:31;;;;;;;3.20;0.98;;;;;;;;;;10230901;28;20023;-79
2023/11/04 13:59:31;;;;;;;0.90;0.70;;;;;;;;;;10249147;29;20027;-78
2023/11/04 14:04:32;;;;;;;2.50;1.30;;;;;;;;;;10226460;29;20061;-80
2023/11/04 14:09:33;;;;;;;3.77;1.43;;;;;;;;;;10260001;29;20275;-77
2023/11/04 14:14:33;;;;;;;1.40;1.05;;;;;;;;;;10223515;28;20028;-78
2023/11/04 14:19:34;;;;;;;3.58;0.82;;;;;;;;;;10222868;29;20066;-78
2023/11/04 14:24:34;;;;;;;1.70;0.83;;;;;;;;;;10221803;28;20318;-79
2023/11/04 14:29:34;;;;;;;1.13;0.90;;;;;;;;;;10237315;28;20092;-78
2023/11/04 14:34:35;;;;;;;2.22;0.85;;;;;;;;;;10257341;29;20106;-78
2023/11/04 14:39:35;;;;;;;1.42;0.80;;;;;;;;;;10225265;29;20083;-77
2023/11/04 14:44:38;;;;;;;4.57;1.75;;;;;;;;;;10221379;29;20225;-79
2023/11/04 14:49:39;;;;;;;3.30;1.10;;;;;;;;;;10220069;29;20034;-77
2023/11/04 14:54:39;;;;;;;1.50;0.77;;;;;;;;;;10210286;29;20317;-75
2023/11/04 14:59:39;;;;;;;3.53;1.10;;;;;;;;;;10217628;28;20218;-76
2023/11/04 15:04:40;;;;;;;5.55;1.38;;;;;;;;;;10203863;29;20056;-76
2023/11/04 15:09:42;;;;;;;2.33;0.90;;;;;;;;;;10219248;28;20211;-75
2023/11/04 15:14:43;;;;;;;1.02;0.63;;;;;;;;;;10211256;28;20410;-76
2023/11/04 15:19:43;;;;;;;1.85;0.95;;;;;;;;;;10201071;29;20023;-75
2023/11/04 15:24:44;;;;;;;1.67;0.65;;;;;;;;;;10207624;29;20066;-75
2023/11/04 15:29:45;;;;;;;2.33;0.82;;;;;;;;;;10201356;29;20024;-75
2023/11/04 15:34:45;;;;;;;3.22;1.45;;;;;;;;;;10199695;29;20047;-75
2023/11/04 15:39:45;;;;;;;8.20;1.63;;;;;;;;;;10202981;29;20111;-75
2023/11/04 15:44:46;;;;;;;3.22;1.67;;;;;;;;;;10204747;29;20091;-77
2023/11/04 15:49:46;;;;;;;5.25;1.75;;;;;;;;;;10202080;29;20118;-76
2023/11/04 15:54:46;;;;;;;4.57;1.43;;;;;;;;;;10206094;29;20040;-75
2023/11/04 15:59:47;;;;;;;4.20;2.00;;;;;;;;;;10197733;29;20302;-74
2023/11/04 16:04:47;;;;;;;3.60;1.77;;;;;;;;;;10199407;29;20226;-74
2023/11/04 16:09:47;;;;;;;6.47;3.50;;;;;;;;;;10207473;29;20229;-74
2023/11/04 16:14:49;;;;;;;5.30;1.92;;;;;;;;;;10208653;29;20217;-78
2023/11/04 16:19:49;;;;;;;4.88;2.72;;;;;;;;;;10215379;29;20195;-74
2023/11/04 16:24:50;;;;;;;4.50;2.08;;;;;;;;;;10211786;29;20080;-78
2023/11/04 16:29:50;;;;;;;5.07;2.37;;;;;;;;;;10219110;28;20039;-75
2023/11/04 16:34:52;;;;;;;4.43;2.70;;;;;;;;;;10212917;29;20062;-75
2023/11/04 16:39:52;;;;;;;6.45;2.83;;;;;;;;;;10225680;29;20028;-76
2023/11/04 16:44:53;;;;;;;9.80;2.00;;;;;;;;;;10221454;29;20034;-75
2023/11/04 16:49:54;;;;;;;4.80;2.40;;;;;;;;;;10211178;28;20210;-75
2023/11/04 16:54:56;;;;;;;7.35;2.63;;;;;;;;;;10207497;29;20020;-75
2023/11/04 16:59:56;;;;;;;4.85;2.08;;;;;;;;;;10213211;28;20194;-75
2023/11/04 17:04:57;;;;;;;6.53;2.30;;;;;;;;;;10216497;29;20070;-74
2023/11/04 17:09:57;;;;;;;7.03;2.43;;;;;;;;;;10209027;29;20318;-74
2023/11/04 17:14:57;;;;;;;2.67;1.75;;;;;;;;;;10208927;29;20019;-74
2023/11/04 17:19:58;;;;;;;4.97;1.63;;;;;;;;;;10212388;29;20053;-75
2023/11/04 17:24:58;;;;;;;4.77;1.80;;;;;;;;;;10209113;29;20159;-75
2023/11/04 17:29:58;;;;;;;7.65;1.90;;;;;;;;;;10205975;29;20211;-75
2023/11/04 17:35:02;;;;;;;2.05;1.25;;;;;;;;;;10202741;29;20064;-74
2023/11/04 17:40:02;;;;;;;3.95;1.77;;;;;;;;;;10218110;28;20043;-75
2023/11/04 17:45:03;;;;;;;6.47;2.65;;;;;;;;;;10205310;29;20047;-75
2023/11/04 17:50:04;;;;;;;2.80;2.25;;;;;;;;;;10207503;29;20106;-75
2023/11/04 17:55:04;;;;;;;4.43;2.58;;;;;;;;;;10203102;29;20341;-75
2023/11/04 18:00:05;;;;;;;12.70;5.15;;;;;;;;;;10203408;29;20031;-74
2023/11/04 18:05:07;;;;;;;5.78;2.10;;;;;;;;;;10203368;29;20028;-76
2023/11/04 18:10:07;;;;;;;4.20;2.72;;;;;;;;;;10204716;29;20313;-74
2023/11/04 18:15:08;;;;;;;0.25;0.20;;;;;;;;;;10207063;29;20099;-77
2023/11/04 18:20:08;;;;;;;1.17;0.47;;;;;;;;;;10205398;28;20520;-78
2023/11/04 18:25:09;;;;;;;1.05;0.40;;;;;;;;;;10209759;29;20019;-75
2023/11/04 18:30:09;;;;;;;0.40;0.30;;;;;;;;;;10208270;29;20099;-76
2023/11/04 18:35:10;;;;;;;0.82;0.40;;;;;;;;;;10206181;29;20130;-76
2023/11/04 18:40:10;;;;;;;0.50;0.40;;;;;;;;;;10201940;29;20224;-76
2023/11/04 18:45:11;;;;;;;1.85;0.75;;;;;;;;;;10203367;29;20386;-75
2023/11/04 18:50:11;;;;;;;2.93;0.60;;;;;;;;;;10201021;29;20055;-76
2023/11/04 18:55:11;;;;;;;1.45;0.40;;;;;;;;;;10206867;29;20019;-76
2023/11/04 19:00:12;;;;;;;1.90;1.00;;;;;;;;;;10218091;28;20032;-76
2023/11/04 19:05:12;;;;;;;0.50;0.40;;;;;;;;;;10200189;29;20008;-77
2023/11/04 19:10:12;;;;;;;2.60;0.70;;;;;;;;;;10210833;29;20229;-77
2023/11/04 19:15:12;;;;;;;0.70;0.32;;;;;;;;;;10208002;29;20079;-76
2023/11/04 19:20:14;;;;;;;4.70;1.08;;;;;;;;;;10202822;29;20028;-77
2023/11/04 19:25:14;;;;;;;1.98;0.43;;;;;;;;;;10208936;29;20596;-76
2023/11/04 19:30:14;;;;;;;2.22;1.25;;;;;;;;;;10205031;29;20020;-78
2023/11/04 19:35:15;;;;;;;0.43;0.30;;;;;;;;;;10212286;29;20039;-77
2023/11/04 19:40:15;;;;;;;2.97;0.47;;;;;;;;;;10205568;29;20031;-77
2023/11/04 19:45:21;;;;;;;0.30;0.30;;;;;;;;;;10200974;29;20417;-78
2023/11/04 19:50:23;;;;;;;0.50;0.50;;;;;;;;;;10209046;29;20059;-84
2023/11/04 19:55:23;;;;;;;1.58;0.80;;;;;;;;;;10215008;28;20285;-74
2023/11/04 20:00:24;;;;;;;2.27;1.50;;;;;;;;;;10204002;29;20034;-76
2023/11/04 20:05:24;;;;;;;3.13;1.83;;;;;;;;;;10208059;28;20251;-74
2023/11/04 20:10:25;;;;;;;5.70;2.05;;;;;;;;;;10208297;29;20330;-69
2023/11/04 20:15:27;;;;;;;10.75;7.00;;;;;;;;;;10206918;29;20024;-70
2023/11/04 20:20:27;;;;;;;3.83;1.15;;;;;;;;;;10207883;29;20031;-71
2023/11/04 20:25:27;;;;;;;2.23;0.60;;;;;;;;;;10206266;29;20087;-70
2023/11/04 20:30:28;;;;;;;2.58;0.95;;;;;;;;;;10205783;29;20028;-70
2023/11/04 20:35:29;;;;;;;1.30;0.53;;;;;;;;;;10209369;29;20059;-72
2023/11/04 20:40:30;;;;;;;1.02;0.85;;;;;;;;;;10205642;29;20032;-71
2023/11/04 20:45:34;;;;;;;1.08;0.80;;;;;;;;;;10206234;28;20051;-71
2023/11/04 20:50:34;;;;;;;6.72;0.93;;;;;;;;;;10225678;28;20309;-71
2023/11/04 20:55:35;;;;;;;4.20;1.77;;;;;;;;;;10215520;29;20121;-71
2023/11/04 21:00:35;;;;;;;8.02;1.77;;;;;;;;;;10214635;29;20035;-71
2023/11/04 21:05:36;;;;;;;4.20;1.92;;;;;;;;;;10216430;29;20031;-72
2023/11/04 21:10:36;;;;;;;2.50;1.00;;;;;;;;;;10217306;29;20019;-74
2023/11/04 21:15:36;;;;;;;3.63;1.63;;;;;;;;;;10210893;29;20369;-76
2023/11/04 21:20:36;;;;;;;4.35;1.65;;;;;;;;;;10214283;29;20127;-71
2023/11/04 21:25:37;;;;;;;3.08;1.85;;;;;;;;;;10212020;29;20210;-72
2023/11/04 21:30:38;;;;;;;2.83;1.67;;;;;;;;;;10220187;29;20315;-84
2023/11/04 21:35:39;;;;;;;1.92;1.23;;;;;;;;;;10218465;29;20040;-84
2023/11/04 21:40:39;;;;;;;5.25;1.90;;;;;;;;;;10221890;29;20230;-79
2023/11/04 21:45:39;;;;;;;9.87;2.30;;;;;;;;;;10220548;29;20286;-79
2023/11/04 21:50:40;;;;;;;2.28;1.27;;;;;;;;;;10222619;29;20019;-73
2023/11/04 21:55:40;;;;;;;2.67;1.42;;;;;;;;;;10217828;29;20365;-77
2023/11/04 22:00:40;;;;;;;2.53;1.50;;;;;;;;;;10210812;29;20222;-76
2023/11/04 22:05:40;;;;;;;5.68;1.45;;;;;;;;;;10215698;29;20030;-73
2023/11/04 22:10:42;;;;;;;5.03;1.33;;;;;;;;;;10213649;29;20027;-73
2023/11/04 22:15:43;;;;;;;6.93;1.70;;;;;;;;;;10215214;29;20226;-72
2023/11/04 22:20:43;;;;;;;3.80;1.02;;;;;;;;;;10218565;29;20143;-74
2023/11/04 22:25:44;;;;;;;0.30;0.30;;;;;;;;;;10217866;29;20336;-73
2023/11/04 22:30:44;;;;;;;0.13;0.13;;;;;;;;;;10211835;29;20028;-74
2023/11/04 22:35:44;;;;;;;1.43;0.47;;;;;;;;;;10204918;29;20368;-74
2023/11/04 22:40:45;;;;;;;4.10;1.08;;;;;;;;;;10217456;29;20421;-72
2023/11/04 22:45:45;;;;;;;5.45;2.13;;;;;;;;;;10217424;29;20035;-73
2023/11/04 22:50:45;;;;;;;6.10;2.40;;;;;;;;;;10216474;29;20545;-76
2023/11/04 22:55:45;;;;;;;4.32;2.42;;;;;;;;;;10216970;29;20034;-75
2023/11/04 23:00:46;;;;;;;2.75;1.60;;;;;;;;;;10214346;28;20070;-74
2023/11/04 23:05:47;;;;;;;3.20;1.38;;;;;;;;;;10216814;29;20016;-75
2023/11/04 23:10:47;;;;;;;8.18;2.42;;;;;;;;;;10215686;29;20019;-75
2023/11/04 23:15:47;;;;;;;6.25;2.15;;;;;;;;;;10215092;28;20228;-75
2023/11/04 23:20:47;;;;;;;1.45;0.90;;;;;;;;;;10216101;29;20553;-74
2023/11/04 23:25:48;;;;;;;5.15;1.02;;;;;;;;;;10216118;29;20310;-74
2023/11/04 23:30:48;;;;;;;1.87;0.93;;;;;;;;;;10214704;28;20030;-75
2023/11/04 23:35:49;;;;;;;2.15;1.30;;;;;;;;;;10215928;29;20332;-74
2023/11/04 23:40:49;;;;;;;6.72;1.48;;;;;;;;;;10215522;29;20024;-73
2023/11/04 23:45:51;;;;;;;6.68;1.98;;;;;;;;;;10214361;28;20098;-74
2023/11/04 23:50:51;;;;;;;5.22;1.83;;;;;;;;;;10215378;29;20258;-73
2023/11/04 23:55:51;;;;;;;2.08;1.63;;;;;;;;;;10215012;29;20020;-75
